sensor_id;sensor_type;location;lat;lon;timestamp;P1;durP1;ratioP1;P2;durP2;ratioP2
49366;SDS011;35245;52.026;8.540;2023-09-12T00:01:03;3.13;;;1.92;;
49366;SDS011;35245;52.026;8.540;2023-09-12T00:03:31;3.67;;;2.08;;
49366;SDS011;35245;52.026;8.540;2023-09-12T00:06:00;2.67;;;1.80;;
49366;SDS011;35245;52.026;8.540;2023-09-12T00:08:30;3.53;;;1.80;;
49366;SDS011;35245;52.026;8.540;2023-09-12T00:11:00;2.08;;;1.73;;
49366;SDS011;35245;52.026;8.540;2023-09-12T00:13:29;2.08;;;1.80;;
49366;SDS011;35245;52.026;8.540;2023-09-12T00:15:57;3.50;;;1.70;;
49366;SDS011;35245;52.026;8.540;2023-09-12T00:18:24;2.95;;;1.90;;
49366;SDS011;35245;52.026;8.540;2023-09-12T00:20:52;4.35;;;1.92;;
49366;SDS011;35245;52.026;8.540;2023-09-12T00:23:20;4.25;;;2.20;;
49366;SDS011;35245;52.026;8.540;2023-09-12T00:25:50;6.68;;;1.98;;
49366;SDS011;35245;52.026;8.540;2023-09-12T00:28:17;4.22;;;1.85;;
49366;SDS011;35245;52.026;8.540;2023-09-12T00:30:45;2.75;;;1.90;;
49366;SDS011;35245;52.026;8.540;2023-09-12T00:33:12;4.85;;;2.08;;
49366;SDS011;35245;52.026;8.540;2023-09-12T00:35:39;1.98;;;1.75;;
49366;SDS011;35245;52.026;8.540;2023-09-12T00:38:08;4.15;;;2.28;;
49366;SDS011;35245;52.026;8.540;2023-09-12T00:40:35;2.28;;;1.63;;
49366;SDS011;35245;52.026;8.540;2023-09-12T00:43:04;4.13;;;1.73;;
49366;SDS011;35245;52.026;8.540;2023-09-12T00:45:31;5.13;;;1.83;;
49366;SDS011;35245;52.026;8.540;2023-09-12T00:47:59;2.90;;;1.90;;
49366;SDS011;35245;52.026;8.540;2023-09-12T00:50:27;3.03;;;1.60;;
49366;SDS011;35245;52.026;8.540;2023-09-12T00:52:56;5.45;;;1.75;;
49366;SDS011;35245;52.026;8.540;2023-09-12T00:55:23;4.75;;;2.55;;
49366;SDS011;35245;52.026;8.540;2023-09-12T00:57:51;5.32;;;1.88;;
49366;SDS011;35245;52.026;8.540;2023-09-12T01:00:21;3.72;;;2.33;;
49366;SDS011;35245;52.026;8.540;2023-09-12T01:02:49;3.80;;;2.63;;
49366;SDS011;35245;52.026;8.540;2023-09-12T01:05:17;2.92;;;2.17;;
49366;SDS011;35245;52.026;8.540;2023-09-12T01:07:46;3.47;;;2.33;;
49366;SDS011;35245;52.026;8.540;2023-09-12T01:10:13;5.20;;;2.50;;
49366;SDS011;35245;52.026;8.540;2023-09-12T01:12:41;4.57;;;2.75;;
49366;SDS011;35245;52.026;8.540;2023-09-12T01:15:08;4.55;;;3.25;;
49366;SDS011;35245;52.026;8.540;2023-09-12T01:17:40;5.82;;;3.60;;
49366;SDS011;35245;52.026;8.540;2023-09-12T01:20:08;5.22;;;3.83;;
49366;SDS011;35245;52.026;8.540;2023-09-12T01:22:56;6.35;;;4.07;;
49366;SDS011;35245;52.026;8.540;2023-09-12T01:25:55;6.45;;;4.35;;
49366;SDS011;35245;52.026;8.540;2023-09-12T01:28:45;6.70;;;4.50;;
49366;SDS011;35245;52.026;8.540;2023-09-12T01:31:17;7.80;;;4.57;;
49366;SDS011;35245;52.026;8.540;2023-09-12T01:33:45;8.82;;;5.25;;
49366;SDS011;35245;52.026;8.540;2023-09-12T01:36:12;7.75;;;5.00;;
49366;SDS011;35245;52.026;8.540;2023-09-12T01:38:39;10.95;;;5.72;;
49366;SDS011;35245;52.026;8.540;2023-09-12T01:41:07;5.85;;;4.90;;
49366;SDS011;35245;52.026;8.540;2023-09-12T01:43:34;10.75;;;6.38;;
49366;SDS011;35245;52.026;8.540;2023-09-12T01:46:05;7.30;;;5.32;;
49366;SDS011;35245;52.026;8.540;2023-09-12T01:48:34;7.95;;;5.88;;
49366;SDS011;35245;52.026;8.540;2023-09-12T01:51:03;8.13;;;5.97;;
49366;SDS011;35245;52.026;8.540;2023-09-12T01:53:31;8.57;;;6.20;;
49366;SDS011;35245;52.026;8.540;2023-09-12T01:56:01;10.57;;;7.05;;
49366;SDS011;35245;52.026;8.540;2023-09-12T01:58:28;12.98;;;8.80;;
49366;SDS011;35245;52.026;8.540;2023-09-12T02:00:56;11.55;;;8.30;;
49366;SDS011;35245;52.026;8.540;2023-09-12T02:03:25;11.43;;;8.43;;
49366;SDS011;35245;52.026;8.540;2023-09-12T02:05:52;13.50;;;7.70;;
49366;SDS011;35245;52.026;8.540;2023-09-12T02:08:19;13.57;;;8.80;;
49366;SDS011;35245;52.026;8.540;2023-09-12T02:10:47;9.43;;;7.40;;
49366;SDS011;35245;52.026;8.540;2023-09-12T02:13:14;12.25;;;8.45;;
49366;SDS011;35245;52.026;8.540;2023-09-12T02:15:41;12.95;;;9.50;;
49366;SDS011;35245;52.026;8.540;2023-09-12T02:18:08;11.18;;;9.23;;
49366;SDS011;35245;52.026;8.540;2023-09-12T02:20:39;16.05;;;10.63;;
49366;SDS011;35245;52.026;8.540;2023-09-12T02:23:10;15.05;;;11.35;;
49366;SDS011;35245;52.026;8.540;2023-09-12T02:25:38;14.50;;;10.57;;
49366;SDS011;35245;52.026;8.540;2023-09-12T02:28:05;18.10;;;12.30;;
49366;SDS011;35245;52.026;8.540;2023-09-12T02:30:32;16.02;;;12.40;;
49366;SDS011;35245;52.026;8.540;2023-09-12T02:32:59;18.67;;;12.40;;
49366;SDS011;35245;52.026;8.540;2023-09-12T02:35:27;17.90;;;13.15;;
49366;SDS011;35245;52.026;8.540;2023-09-12T02:37:56;16.10;;;12.20;;
49366;SDS011;35245;52.026;8.540;2023-09-12T02:40:23;17.38;;;13.02;;
49366;SDS011;35245;52.026;8.540;2023-09-12T02:42:51;14.40;;;11.70;;
49366;SDS011;35245;52.026;8.540;2023-09-12T02:45:18;16.13;;;12.07;;
49366;SDS011;35245;52.026;8.540;2023-09-12T02:47:45;13.40;;;10.93;;
49366;SDS011;35245;52.026;8.540;2023-09-12T02:50:12;14.18;;;11.05;;
49366;SDS011;35245;52.026;8.540;2023-09-12T02:52:39;14.73;;;10.95;;
49366;SDS011;35245;52.026;8.540;2023-09-12T02:55:08;13.07;;;10.73;;
49366;SDS011;35245;52.026;8.540;2023-09-12T02:57:35;16.95;;;11.30;;
49366;SDS011;35245;52.026;8.540;2023-09-12T03:00:03;11.90;;;10.18;;
49366;SDS011;35245;52.026;8.540;2023-09-12T03:02:34;14.80;;;10.38;;
49366;SDS011;35245;52.026;8.540;2023-09-12T03:05:01;13.30;;;10.20;;
49366;SDS011;35245;52.026;8.540;2023-09-12T03:07:29;12.98;;;10.35;;
49366;SDS011;35245;52.026;8.540;2023-09-12T03:09:56;15.00;;;10.95;;
49366;SDS011;35245;52.026;8.540;2023-09-12T03:12:25;14.02;;;10.98;;
49366;SDS011;35245;52.026;8.540;2023-09-12T03:14:52;15.98;;;12.00;;
49366;SDS011;35245;52.026;8.540;2023-09-12T03:17:19;14.20;;;11.13;;
49366;SDS011;35245;52.026;8.540;2023-09-12T03:19:46;15.55;;;11.32;;
49366;SDS011;35245;52.026;8.540;2023-09-12T03:22:13;15.65;;;10.82;;
49366;SDS011;35245;52.026;8.540;2023-09-12T03:24:40;16.20;;;12.63;;
49366;SDS011;35245;52.026;8.540;2023-09-12T03:27:08;14.70;;;11.23;;
49366;SDS011;35245;52.026;8.540;2023-09-12T03:29:36;14.30;;;11.15;;
49366;SDS011;35245;52.026;8.540;2023-09-12T03:32:03;12.90;;;10.90;;
49366;SDS011;35245;52.026;8.540;2023-09-12T03:34:30;14.82;;;11.18;;
49366;SDS011;35245;52.026;8.540;2023-09-12T03:36:58;15.48;;;11.82;;
49366;SDS011;35245;52.026;8.540;2023-09-12T03:39:25;14.23;;;11.95;;
49366;SDS011;35245;52.026;8.540;2023-09-12T03:41:52;15.88;;;13.45;;
49366;SDS011;35245;52.026;8.540;2023-09-12T03:44:19;19.70;;;14.38;;
49366;SDS011;35245;52.026;8.540;2023-09-12T03:46:47;14.98;;;13.15;;
49366;SDS011;35245;52.026;8.540;2023-09-12T03:49:14;17.65;;;14.32;;
49366;SDS011;35245;52.026;8.540;2023-09-12T03:51:41;17.35;;;13.48;;
49366;SDS011;35245;52.026;8.540;2023-09-12T03:54:09;14.02;;;11.73;;
49366;SDS011;35245;52.026;8.540;2023-09-12T03:56:36;12.38;;;10.15;;
49366;SDS011;35245;52.026;8.540;2023-09-12T03:59:03;12.18;;;8.38;;
49366;SDS011;35245;52.026;8.540;2023-09-12T04:01:30;11.57;;;7.95;;
49366;SDS011;35245;52.026;8.540;2023-09-12T04:03:58;8.63;;;7.28;;
49366;SDS011;35245;52.026;8.540;2023-09-12T04:06:25;9.05;;;6.55;;
49366;SDS011;35245;52.026;8.540;2023-09-12T04:08:52;10.50;;;5.70;;
49366;SDS011;35245;52.026;8.540;2023-09-12T04:11:19;6.20;;;4.78;;
49366;SDS011;35245;52.026;8.540;2023-09-12T04:13:47;6.80;;;5.25;;
49366;SDS011;35245;52.026;8.540;2023-09-12T04:16:14;7.57;;;5.85;;
49366;SDS011;35245;52.026;8.540;2023-09-12T04:18:41;6.40;;;5.10;;
49366;SDS011;35245;52.026;8.540;2023-09-12T04:21:10;6.13;;;4.68;;
49366;SDS011;35245;52.026;8.540;2023-09-12T04:23:37;6.90;;;4.78;;
49366;SDS011;35245;52.026;8.540;2023-09-12T04:26:05;8.15;;;5.53;;
49366;SDS011;35245;52.026;8.540;2023-09-12T04:28:32;6.45;;;4.80;;
49366;SDS011;35245;52.026;8.540;2023-09-12T04:31:02;6.30;;;4.57;;
49366;SDS011;35245;52.026;8.540;2023-09-12T04:33:29;11.05;;;5.95;;
49366;SDS011;35245;52.026;8.540;2023-09-12T04:35:57;8.55;;;6.03;;
49366;SDS011;35245;52.026;8.540;2023-09-12T04:38:29;7.22;;;5.63;;
49366;SDS011;35245;52.026;8.540;2023-09-12T04:40:59;6.35;;;5.07;;
49366;SDS011;35245;52.026;8.540;2023-09-12T04:43:30;8.45;;;5.45;;
49366;SDS011;35245;52.026;8.540;2023-09-12T04:45:57;9.80;;;5.63;;
49366;SDS011;35245;52.026;8.540;2023-09-12T04:48:24;10.00;;;6.55;;
49366;SDS011;35245;52.026;8.540;2023-09-12T04:50:51;16.55;;;8.15;;
49366;SDS011;35245;52.026;8.540;2023-09-12T04:53:18;18.50;;;9.65;;
49366;SDS011;35245;52.026;8.540;2023-09-12T04:55:47;30.35;;;9.35;;
49366;SDS011;35245;52.026;8.540;2023-09-12T04:58:14;18.38;;;11.95;;
49366;SDS011;35245;52.026;8.540;2023-09-12T05:00:41;18.52;;;11.55;;
49366;SDS011;35245;52.026;8.540;2023-09-12T05:03:08;26.58;;;11.18;;
49366;SDS011;35245;52.026;8.540;2023-09-12T05:05:35;14.50;;;9.57;;
49366;SDS011;35245;52.026;8.540;2023-09-12T05:08:02;18.40;;;11.35;;
49366;SDS011;35245;52.026;8.540;2023-09-12T05:10:30;16.30;;;9.57;;
49366;SDS011;35245;52.026;8.540;2023-09-12T05:12:59;14.70;;;10.05;;
49366;SDS011;35245;52.026;8.540;2023-09-12T05:15:26;19.23;;;12.60;;
49366;SDS011;35245;52.026;8.540;2023-09-12T05:17:53;19.60;;;14.05;;
49366;SDS011;35245;52.026;8.540;2023-09-12T05:20:20;21.77;;;13.48;;
49366;SDS011;35245;52.026;8.540;2023-09-12T05:22:47;21.15;;;14.30;;
49366;SDS011;35245;52.026;8.540;2023-09-12T05:25:14;18.05;;;12.95;;
49366;SDS011;35245;52.026;8.540;2023-09-12T05:27:42;18.38;;;11.32;;
49366;SDS011;35245;52.026;8.540;2023-09-12T05:30:10;15.60;;;9.68;;
49366;SDS011;35245;52.026;8.540;2023-09-12T05:32:38;17.08;;;10.63;;
49366;SDS011;35245;52.026;8.540;2023-09-12T05:35:07;21.40;;;13.50;;
49366;SDS011;35245;52.026;8.540;2023-09-12T05:37:34;18.48;;;11.38;;
49366;SDS011;35245;52.026;8.540;2023-09-12T05:40:02;22.23;;;11.43;;
49366;SDS011;35245;52.026;8.540;2023-09-12T05:42:31;14.27;;;10.20;;
49366;SDS011;35245;52.026;8.540;2023-09-12T05:44:58;15.68;;;10.38;;
49366;SDS011;35245;52.026;8.540;2023-09-12T05:47:26;19.17;;;11.40;;
49366;SDS011;35245;52.026;8.540;2023-09-12T05:49:54;12.60;;;9.27;;
49366;SDS011;35245;52.026;8.540;2023-09-12T05:52:24;14.50;;;9.70;;
49366;SDS011;35245;52.026;8.540;2023-09-12T05:54:51;12.93;;;8.55;;
49366;SDS011;35245;52.026;8.540;2023-09-12T05:57:18;13.98;;;8.57;;
49366;SDS011;35245;52.026;8.540;2023-09-12T05:59:46;12.10;;;8.45;;
49366;SDS011;35245;52.026;8.540;2023-09-12T06:02:13;12.50;;;8.93;;
49366;SDS011;35245;52.026;8.540;2023-09-12T06:04:41;15.55;;;9.38;;
49366;SDS011;35245;52.026;8.540;2023-09-12T06:07:09;12.85;;;9.40;;
49366;SDS011;35245;52.026;8.540;2023-09-12T06:09:36;12.18;;;8.52;;
49366;SDS011;35245;52.026;8.540;2023-09-12T06:12:03;12.20;;;7.75;;
49366;SDS011;35245;52.026;8.540;2023-09-12T06:14:32;11.75;;;8.63;;
49366;SDS011;35245;52.026;8.540;2023-09-12T06:16:59;13.57;;;9.05;;
49366;SDS011;35245;52.026;8.540;2023-09-12T06:19:26;15.90;;;9.43;;
49366;SDS011;35245;52.026;8.540;2023-09-12T06:21:54;15.15;;;8.90;;
49366;SDS011;35245;52.026;8.540;2023-09-12T06:24:23;13.10;;;9.15;;
49366;SDS011;35245;52.026;8.540;2023-09-12T06:26:50;16.17;;;9.82;;
49366;SDS011;35245;52.026;8.540;2023-09-12T06:29:17;13.13;;;9.43;;
49366;SDS011;35245;52.026;8.540;2023-09-12T06:31:44;14.60;;;9.40;;
49366;SDS011;35245;52.026;8.540;2023-09-12T06:34:11;11.93;;;7.68;;
49366;SDS011;35245;52.026;8.540;2023-09-12T06:36:39;10.80;;;8.40;;
49366;SDS011;35245;52.026;8.540;2023-09-12T06:39:07;14.65;;;8.43;;
49366;SDS011;35245;52.026;8.540;2023-09-12T06:41:35;14.38;;;8.65;;
49366;SDS011;35245;52.026;8.540;2023-09-12T06:44:02;13.48;;;8.30;;
49366;SDS011;35245;52.026;8.540;2023-09-12T06:46:30;12.07;;;8.70;;
49366;SDS011;35245;52.026;8.540;2023-09-12T06:49:00;17.27;;;9.50;;
49366;SDS011;35245;52.026;8.540;2023-09-12T06:51:28;15.07;;;9.07;;
49366;SDS011;35245;52.026;8.540;2023-09-12T06:53:55;12.80;;;8.93;;
49366;SDS011;35245;52.026;8.540;2023-09-12T06:56:24;12.95;;;8.73;;
49366;SDS011;35245;52.026;8.540;2023-09-12T06:58:52;17.42;;;8.77;;
49366;SDS011;35245;52.026;8.540;2023-09-12T07:01:20;9.82;;;6.57;;
49366;SDS011;35245;52.026;8.540;2023-09-12T07:03:48;8.80;;;5.60;;
49366;SDS011;35245;52.026;8.540;2023-09-12T07:08:46;11.35;;;6.60;;
49366;SDS011;35245;52.026;8.540;2023-09-12T07:11:13;12.07;;;7.50;;
49366;SDS011;35245;52.026;8.540;2023-09-12T07:13:41;20.33;;;8.70;;
49366;SDS011;35245;52.026;8.540;2023-09-12T07:16:09;10.82;;;8.48;;
49366;SDS011;35245;52.026;8.540;2023-09-12T07:18:37;12.23;;;7.75;;
49366;SDS011;35245;52.026;8.540;2023-09-12T07:21:04;19.98;;;9.77;;
49366;SDS011;35245;52.026;8.540;2023-09-12T07:23:32;14.95;;;9.02;;
49366;SDS011;35245;52.026;8.540;2023-09-12T07:25:59;21.70;;;12.45;;
49366;SDS011;35245;52.026;8.540;2023-09-12T07:28:27;95.70;;;18.88;;
49366;SDS011;35245;52.026;8.540;2023-09-12T07:30:59;1759.95;;;268.15;;
49366;SDS011;35245;52.026;8.540;2023-09-12T07:33:26;1522.93;;;192.63;;
49366;SDS011;35245;52.026;8.540;2023-09-12T07:35:53;1978.47;;;239.82;;
49366;SDS011;35245;52.026;8.540;2023-09-12T07:38:21;1999.90;;;245.07;;
49366;SDS011;35245;52.026;8.540;2023-09-12T07:40:48;68.65;;;35.38;;
49366;SDS011;35245;52.026;8.540;2023-09-12T07:43:15;93.85;;;38.33;;
49366;SDS011;35245;52.026;8.540;2023-09-12T07:45:42;103.95;;;43.45;;
49366;SDS011;35245;52.026;8.540;2023-09-12T07:48:11;83.20;;;38.03;;
49366;SDS011;35245;52.026;8.540;2023-09-12T07:50:38;80.53;;;37.40;;
49366;SDS011;35245;52.026;8.540;2023-09-12T07:53:05;73.20;;;37.78;;
49366;SDS011;35245;52.026;8.540;2023-09-12T07:55:35;55.30;;;30.85;;
49366;SDS011;35245;52.026;8.540;2023-09-12T07:58:10;79.10;;;38.22;;
49366;SDS011;35245;52.026;8.540;2023-09-12T08:00:37;85.10;;;39.67;;
49366;SDS011;35245;52.026;8.540;2023-09-12T08:03:04;66.55;;;33.88;;
49366;SDS011;35245;52.026;8.540;2023-09-12T08:05:33;79.75;;;38.13;;
49366;SDS011;35245;52.026;8.540;2023-09-12T08:08:00;54.00;;;30.02;;
49366;SDS011;35245;52.026;8.540;2023-09-12T08:10:27;48.65;;;27.98;;
49366;SDS011;35245;52.026;8.540;2023-09-12T08:12:54;36.83;;;24.02;;
49366;SDS011;35245;52.026;8.540;2023-09-12T08:15:22;49.92;;;29.52;;
49366;SDS011;35245;52.026;8.540;2023-09-12T08:17:49;1028.60;;;156.85;;
49366;SDS011;35245;52.026;8.540;2023-09-12T08:20:18;80.68;;;39.45;;
49366;SDS011;35245;52.026;8.540;2023-09-12T08:22:47;52.88;;;26.15;;
49366;SDS011;35245;52.026;8.540;2023-09-12T08:25:15;843.80;;;110.32;;
49366;SDS011;35245;52.026;8.540;2023-09-12T08:27:43;612.10;;;82.28;;
49366;SDS011;35245;52.026;8.540;2023-09-12T08:30:11;782.10;;;117.03;;
49366;SDS011;35245;52.026;8.540;2023-09-12T08:32:39;571.38;;;89.40;;
49366;SDS011;35245;52.026;8.540;2023-09-12T08:35:09;53.17;;;28.58;;
49366;SDS011;35245;52.026;8.540;2023-09-12T08:37:37;55.90;;;30.35;;
49366;SDS011;35245;52.026;8.540;2023-09-12T08:40:07;37.97;;;24.60;;
49366;SDS011;35245;52.026;8.540;2023-09-12T08:42:37;42.97;;;26.40;;
49366;SDS011;35245;52.026;8.540;2023-09-12T08:45:08;82.88;;;38.03;;
49366;SDS011;35245;52.026;8.540;2023-09-12T08:47:40;63.38;;;34.50;;
49366;SDS011;35245;52.026;8.540;2023-09-12T08:50:10;84.32;;;37.40;;
49366;SDS011;35245;52.026;8.540;2023-09-12T08:52:39;84.40;;;38.10;;
49366;SDS011;35245;52.026;8.540;2023-09-12T08:55:09;63.80;;;33.35;;
49366;SDS011;35245;52.026;8.540;2023-09-12T08:57:37;67.57;;;33.70;;
49366;SDS011;35245;52.026;8.540;2023-09-12T09:00:08;69.68;;;34.58;;
49366;SDS011;35245;52.026;8.540;2023-09-12T09:02:38;58.58;;;31.40;;
49366;SDS011;35245;52.026;8.540;2023-09-12T09:05:06;70.57;;;35.97;;
49366;SDS011;35245;52.026;8.540;2023-09-12T09:07:35;70.05;;;36.63;;
49366;SDS011;35245;52.026;8.540;2023-09-12T09:10:04;53.75;;;30.50;;
49366;SDS011;35245;52.026;8.540;2023-09-12T09:12:35;73.57;;;36.15;;
49366;SDS011;35245;52.026;8.540;2023-09-12T09:17:48;59.00;;;32.42;;
49366;SDS011;35245;52.026;8.540;2023-09-12T09:20:25;66.45;;;33.92;;
49366;SDS011;35245;52.026;8.540;2023-09-12T09:23:00;74.45;;;36.15;;
49366;SDS011;35245;52.026;8.540;2023-09-12T09:25:31;67.65;;;32.70;;
49366;SDS011;35245;52.026;8.540;2023-09-12T09:28:00;65.25;;;34.28;;
49366;SDS011;35245;52.026;8.540;2023-09-12T09:33:11;66.75;;;33.42;;
49366;SDS011;35245;52.026;8.540;2023-09-12T09:35:40;53.47;;;31.02;;
49366;SDS011;35245;52.026;8.540;2023-09-12T09:38:09;59.42;;;31.30;;
49366;SDS011;35245;52.026;8.540;2023-09-12T09:40:41;72.35;;;35.78;;
49366;SDS011;35245;52.026;8.540;2023-09-12T09:43:10;67.72;;;33.38;;
49366;SDS011;35245;52.026;8.540;2023-09-12T09:45:42;70.20;;;34.47;;
49366;SDS011;35245;52.026;8.540;2023-09-12T09:48:17;64.15;;;33.10;;
49366;SDS011;35245;52.026;8.540;2023-09-12T09:50:45;59.30;;;31.38;;
49366;SDS011;35245;52.026;8.540;2023-09-12T09:53:12;76.38;;;36.28;;
49366;SDS011;35245;52.026;8.540;2023-09-12T09:55:39;47.53;;;28.88;;
49366;SDS011;35245;52.026;8.540;2023-09-12T09:58:07;74.68;;;32.45;;
49366;SDS011;35245;52.026;8.540;2023-09-12T10:00:41;61.08;;;31.13;;
49366;SDS011;35245;52.026;8.540;2023-09-12T10:03:09;55.35;;;30.42;;
49366;SDS011;35245;52.026;8.540;2023-09-12T10:05:37;62.95;;;33.38;;
49366;SDS011;35245;52.026;8.540;2023-09-12T10:08:06;66.00;;;33.00;;
49366;SDS011;35245;52.026;8.540;2023-09-12T10:10:36;54.75;;;29.95;;
49366;SDS011;35245;52.026;8.540;2023-09-12T10:13:06;59.90;;;33.00;;
49366;SDS011;35245;52.026;8.540;2023-09-12T10:15:36;84.30;;;36.65;;
49366;SDS011;35245;52.026;8.540;2023-09-12T10:18:04;74.03;;;35.10;;
49366;SDS011;35245;52.026;8.540;2023-09-12T10:20:38;58.33;;;30.23;;
49366;SDS011;35245;52.026;8.540;2023-09-12T10:23:15;68.93;;;34.03;;
49366;SDS011;35245;52.026;8.540;2023-09-12T10:25:49;67.22;;;32.45;;
49366;SDS011;35245;52.026;8.540;2023-09-12T10:28:17;54.22;;;29.48;;
49366;SDS011;35245;52.026;8.540;2023-09-12T10:30:46;55.13;;;29.63;;
49366;SDS011;35245;52.026;8.540;2023-09-12T10:33:13;77.88;;;39.22;;
49366;SDS011;35245;52.026;8.540;2023-09-12T10:35:42;46.92;;;28.33;;
49366;SDS011;35245;52.026;8.540;2023-09-12T10:38:11;62.58;;;30.95;;
49366;SDS011;35245;52.026;8.540;2023-09-12T10:40:42;50.20;;;27.52;;
49366;SDS011;35245;52.026;8.540;2023-09-12T10:43:10;48.20;;;25.58;;
49366;SDS011;35245;52.026;8.540;2023-09-12T10:45:38;39.47;;;21.63;;
49366;SDS011;35245;52.026;8.540;2023-09-12T10:48:09;39.72;;;22.77;;
49366;SDS011;35245;52.026;8.540;2023-09-12T10:50:37;30.95;;;20.42;;
49366;SDS011;35245;52.026;8.540;2023-09-12T10:53:09;34.63;;;21.92;;
49366;SDS011;35245;52.026;8.540;2023-09-12T10:55:38;38.15;;;22.25;;
49366;SDS011;35245;52.026;8.540;2023-09-12T10:58:05;30.83;;;19.83;;
49366;SDS011;35245;52.026;8.540;2023-09-12T11:00:35;35.58;;;22.27;;
49366;SDS011;35245;52.026;8.540;2023-09-12T11:06:05;34.42;;;22.92;;
49366;SDS011;35245;52.026;8.540;2023-09-12T11:11:44;33.28;;;21.85;;
49366;SDS011;35245;52.026;8.540;2023-09-12T11:14:13;32.38;;;20.55;;
49366;SDS011;35245;52.026;8.540;2023-09-12T11:16:41;32.67;;;21.77;;
49366;SDS011;35245;52.026;8.540;2023-09-12T11:19:17;30.58;;;21.58;;
49366;SDS011;35245;52.026;8.540;2023-09-12T11:21:49;50.50;;;33.95;;
49366;SDS011;35245;52.026;8.540;2023-09-12T11:24:19;28.92;;;20.17;;
49366;SDS011;35245;52.026;8.540;2023-09-12T11:26:54;21.63;;;15.30;;
49366;SDS011;35245;52.026;8.540;2023-09-12T11:29:26;19.85;;;15.27;;
49366;SDS011;35245;52.026;8.540;2023-09-12T11:31:55;10.88;;;8.77;;
49366;SDS011;35245;52.026;8.540;2023-09-12T11:34:26;13.43;;;11.32;;
49366;SDS011;35245;52.026;8.540;2023-09-12T11:36:55;12.55;;;9.52;;
49366;SDS011;35245;52.026;8.540;2023-09-12T11:39:24;7.40;;;5.65;;
49366;SDS011;35245;52.026;8.540;2023-09-12T11:41:55;7.22;;;4.93;;
49366;SDS011;35245;52.026;8.540;2023-09-12T11:44:23;5.70;;;4.55;;
49366;SDS011;35245;52.026;8.540;2023-09-12T11:46:51;6.13;;;5.25;;
49366;SDS011;35245;52.026;8.540;2023-09-12T11:49:19;4.55;;;3.83;;
49366;SDS011;35245;52.026;8.540;2023-09-12T11:51:49;3.80;;;2.70;;
49366;SDS011;35245;52.026;8.540;2023-09-12T11:54:18;3.70;;;2.78;;
49366;SDS011;35245;52.026;8.540;2023-09-12T11:56:47;3.75;;;2.35;;
49366;SDS011;35245;52.026;8.540;2023-09-12T11:59:16;2.47;;;2.20;;
49366;SDS011;35245;52.026;8.540;2023-09-12T12:01:44;10.10;;;9.10;;
49366;SDS011;35245;52.026;8.540;2023-09-12T12:04:12;3.08;;;2.72;;
49366;SDS011;35245;52.026;8.540;2023-09-12T12:06:40;4.57;;;3.30;;
49366;SDS011;35245;52.026;8.540;2023-09-12T12:09:08;3.22;;;2.55;;
49366;SDS011;35245;52.026;8.540;2023-09-12T12:11:36;4.72;;;3.17;;
49366;SDS011;35245;52.026;8.540;2023-09-12T12:14:10;3.85;;;2.95;;
49366;SDS011;35245;52.026;8.540;2023-09-12T12:16:40;3.85;;;2.75;;
49366;SDS011;35245;52.026;8.540;2023-09-12T12:19:08;3.75;;;2.70;;
49366;SDS011;35245;52.026;8.540;2023-09-12T12:21:36;3.05;;;2.72;;
49366;SDS011;35245;52.026;8.540;2023-09-12T12:24:04;3.10;;;2.72;;
49366;SDS011;35245;52.026;8.540;2023-09-12T12:26:40;3.15;;;2.85;;
49366;SDS011;35245;52.026;8.540;2023-09-12T12:29:08;4.70;;;3.35;;
49366;SDS011;35245;52.026;8.540;2023-09-12T12:31:36;5.45;;;3.05;;
49366;SDS011;35245;52.026;8.540;2023-09-12T12:34:04;5.38;;;3.00;;
49366;SDS011;35245;52.026;8.540;2023-09-12T12:36:32;3.85;;;3.55;;
49366;SDS011;35245;52.026;8.540;2023-09-12T12:38:59;6.20;;;3.72;;
49366;SDS011;35245;52.026;8.540;2023-09-12T12:41:28;3.15;;;2.85;;
49366;SDS011;35245;52.026;8.540;2023-09-12T12:43:56;4.80;;;3.60;;
49366;SDS011;35245;52.026;8.540;2023-09-12T12:46:25;3.53;;;3.22;;
49366;SDS011;35245;52.026;8.540;2023-09-12T12:48:53;5.25;;;4.00;;
49366;SDS011;35245;52.026;8.540;2023-09-12T12:51:21;5.90;;;4.15;;
49366;SDS011;35245;52.026;8.540;2023-09-12T12:53:51;5.85;;;3.97;;
49366;SDS011;35245;52.026;8.540;2023-09-12T12:56:21;4.50;;;4.10;;
49366;SDS011;35245;52.026;8.540;2023-09-12T12:58:54;5.57;;;3.67;;
49366;SDS011;35245;52.026;8.540;2023-09-12T13:01:23;4.22;;;3.60;;
49366;SDS011;35245;52.026;8.540;2023-09-12T13:03:51;4.95;;;3.08;;
49366;SDS011;35245;52.026;8.540;2023-09-12T13:06:19;5.10;;;4.05;;
49366;SDS011;35245;52.026;8.540;2023-09-12T13:08:47;4.30;;;3.55;;
49366;SDS011;35245;52.026;8.540;2023-09-12T13:11:15;3.97;;;3.13;;
49366;SDS011;35245;52.026;8.540;2023-09-12T13:13:43;5.95;;;2.70;;
49366;SDS011;35245;52.026;8.540;2023-09-12T13:16:12;5.78;;;3.53;;
49366;SDS011;35245;52.026;8.540;2023-09-12T13:18:40;5.97;;;3.10;;
49366;SDS011;35245;52.026;8.540;2023-09-12T13:21:07;3.97;;;3.20;;
49366;SDS011;35245;52.026;8.540;2023-09-12T13:23:35;3.30;;;3.00;;
49366;SDS011;35245;52.026;8.540;2023-09-12T13:26:03;5.10;;;2.90;;
49366;SDS011;35245;52.026;8.540;2023-09-12T13:28:33;4.43;;;3.13;;
49366;SDS011;35245;52.026;8.540;2023-09-12T13:31:00;5.30;;;3.28;;
49366;SDS011;35245;52.026;8.540;2023-09-12T13:33:29;5.72;;;3.20;;
49366;SDS011;35245;52.026;8.540;2023-09-12T13:35:56;2.50;;;2.30;;
49366;SDS011;35245;52.026;8.540;2023-09-12T13:38:23;4.32;;;2.92;;
49366;SDS011;35245;52.026;8.540;2023-09-12T13:40:50;3.72;;;2.90;;
49366;SDS011;35245;52.026;8.540;2023-09-12T13:43:17;3.20;;;2.90;;
49366;SDS011;35245;52.026;8.540;2023-09-12T13:45:45;3.55;;;2.60;;
49366;SDS011;35245;52.026;8.540;2023-09-12T13:48:12;3.38;;;2.80;;
49366;SDS011;35245;52.026;8.540;2023-09-12T13:50:41;2.83;;;2.22;;
49366;SDS011;35245;52.026;8.540;2023-09-12T13:53:09;2.78;;;2.45;;
49366;SDS011;35245;52.026;8.540;2023-09-12T13:55:36;4.45;;;3.08;;
49366;SDS011;35245;52.026;8.540;2023-09-12T13:58:04;4.40;;;2.92;;
49366;SDS011;35245;52.026;8.540;2023-09-12T14:00:33;3.25;;;2.47;;
49366;SDS011;35245;52.026;8.540;2023-09-12T14:03:00;5.07;;;2.72;;
49366;SDS011;35245;52.026;8.540;2023-09-12T14:05:28;3.88;;;2.22;;
49366;SDS011;35245;52.026;8.540;2023-09-12T14:07:56;5.60;;;2.42;;
49366;SDS011;35245;52.026;8.540;2023-09-12T14:10:23;4.43;;;2.80;;
49366;SDS011;35245;52.026;8.540;2023-09-12T14:12:50;3.35;;;2.60;;
49366;SDS011;35245;52.026;8.540;2023-09-12T14:15:17;5.60;;;3.53;;
49366;SDS011;35245;52.026;8.540;2023-09-12T14:17:45;2.72;;;2.40;;
49366;SDS011;35245;52.026;8.540;2023-09-12T14:20:12;3.35;;;3.05;;
49366;SDS011;35245;52.026;8.540;2023-09-12T14:22:40;5.53;;;3.22;;
49366;SDS011;35245;52.026;8.540;2023-09-12T14:25:10;5.97;;;4.03;;
49366;SDS011;35245;52.026;8.540;2023-09-12T14:27:40;6.28;;;3.13;;
49366;SDS011;35245;52.026;8.540;2023-09-12T14:30:09;3.88;;;3.47;;
49366;SDS011;35245;52.026;8.540;2023-09-12T14:32:38;4.18;;;2.90;;
49366;SDS011;35245;52.026;8.540;2023-09-12T14:35:06;3.28;;;2.88;;
49366;SDS011;35245;52.026;8.540;2023-09-12T14:37:34;4.25;;;2.95;;
49366;SDS011;35245;52.026;8.540;2023-09-12T14:40:03;3.38;;;3.08;;
49366;SDS011;35245;52.026;8.540;2023-09-12T14:42:33;3.25;;;2.95;;
49366;SDS011;35245;52.026;8.540;2023-09-12T14:45:00;3.13;;;2.80;;
49366;SDS011;35245;52.026;8.540;2023-09-12T14:47:27;3.95;;;2.90;;
49366;SDS011;35245;52.026;8.540;2023-09-12T14:49:55;3.78;;;3.15;;
49366;SDS011;35245;52.026;8.540;2023-09-12T14:52:23;4.82;;;3.50;;
49366;SDS011;35245;52.026;8.540;2023-09-12T14:54:52;3.83;;;3.30;;